• Join FlightAware (Why Join?)
  • Login
  • US Flag 
08:14PM EST


 

Airport Tracker/Info


-or-


 

Live Flight TrackerFlight Track Log ✈ ASQ4487 ✈ 18-Aug-2014 ✈ KCVG - KORD

Flight Track Log - Related Links

Times and Time Zones

All times are in EDT time to prevent confusion due to time zone crossing. See the ASQ4487 flight status page for this flight to view local times or setup timezone preferences in your user account.

Time Position Orientation Groundspeed Altitude Reporting Facility
EDT Latitude Longitude Course Direction KTS MPH feet Rate Location/Type
12:17PM 39.0667 -84.7833 282° West 261 300 3,200  Level Cincinnati TRACON
12:18PM 39.1167 -84.8167 333° Northwest 269 310 5,000 2,220 Climbing Cincinnati TRACON
12:19PM 39.2067 -84.8533 342° North 266 306 7,900 2,000 Climbing Indianapolis Center
12:20PM 39.2747 -84.8833 341° North 270 311 9,700 1,548 Climbing Indianapolis Center
12:21PM 39.3497 -84.9183 340° North 280 322 11,100 1,268 Climbing Indianapolis Center
12:22PM 39.4300 -84.9714 333° Northwest 314 361 12,300 1,171 Climbing Indianapolis Center
12:23PM 39.5281 -85.0367 333° Northwest 328 377 13,500 823 Climbing Indianapolis Center
12:25PM 39.6150 -85.0931 333° Northwest 341 392 14,000 532 Climbing Indianapolis Center
12:26PM 39.7056 -85.1539 333° Northwest 358 412 14,600 585 Climbing Indianapolis Center
12:27PM 39.7975 -85.2144 333° Northwest 365 420 15,200 634 Climbing Indianapolis Center
12:28PM 39.8908 -85.2750 334° Northwest 369 425 15,900 581 Climbing Indianapolis Center
12:29PM 39.9836 -85.3383 332° Northwest 374 430 16,400 537 Climbing Indianapolis Center
12:30PM 40.0978 -85.4122 334° Northwest 377 434 17,000 537 Climbing Indianapolis Center
12:31PM 40.1919 -85.4772 332° Northwest 381 438 17,500 484 Climbing Indianapolis Center
12:32PM 40.2886 -85.5419 333° Northwest 388 447 18,000 581 Climbing Indianapolis Center
12:33PM 40.3853 -85.6061 333° Northwest 389 448 18,700 808 Climbing Indianapolis Center
12:33PM 40.4622 -85.6569 333° Northwest 391 450 19,400 743 Climbing Chicago Center
12:35PM 40.5631 -85.7081 339° North 394 453 20,000 288 Climbing Chicago Center
12:36PM 40.6803 -85.7608 341° North 407 468 20,000  Level Chicago Center
12:37PM 40.7931 -85.8122 341° North 425 489 20,000  Level Chicago Center
12:38PM 40.9067 -85.8642 341° North 431 496 20,000  Level Chicago Center
12:39PM 41.0203 -85.9150 341° North 431 496 20,000  Level Chicago Center
12:40PM 41.1336 -85.9658 341° North 431 496 20,000  Level Chicago Center
12:41PM 41.2358 -86.0461 329° Northwest 427 491 20,000  Level Chicago Center
12:42PM 41.3075 -86.1700 308° West 423 487 20,000 -387 Level Chicago Center
12:43PM 41.3925 -86.3219 307° West 424 488 19,200 -968 Descending Chicago Center
12:44PM 41.4625 -86.4450 307° West 420 483 18,000 -1,548 Descending Chicago Center
12:45PM 41.5286 -86.5644 307° West 402 463 16,000 -2,081 Descending Chicago Center
12:46PM 41.5928 -86.6789 307° West 387 445 13,700 -1,920 Descending Chicago Center
12:47PM 41.6764 -86.7883 316° Northwest 362 417 12,000 -816 Descending Chicago Center
12:48PM 41.7697 -86.8094 350° North 349 402 12,000  Level Chicago Center
12:49PM 41.8700 -86.8392 348° North 341 392 12,000  Level Chicago Center
12:50PM 41.9006 -86.9372 293° West 298 343 12,000 -242 Level Chicago Center
12:51PM 41.9256 -87.0483 287° West 291 335 11,500 -726 Descending Chicago Center
12:52PM 41.9497 -87.1525 287° West 292 336 10,500 -968 Descending Chicago Center
12:53PM 41.9733 -87.2628 286° West 290 334 9,500 -960 Descending Chicago Center
12:54PM 41.9861 -87.3658 280° West 286 329 8,500 -1,152 Descending Chicago Center
12:55PM 41.9811 -87.4689 266° West 257 296 7,100 -1,452 Descending Chicago Center
12:56PM 41.9844 -87.5567 273° West 239 275 5,500 -1,355 Descending Chicago Center
12:57PM 41.9839 -87.6364 269° West 202 232 4,300 -1,065 Descending Chicago Center
12:58PM 41.9831 -87.7031 269° West 183 211 3,300 -968 Descending Chicago Center
12:59PM 41.9828 -87.7756 270° West 183 211 2,300 -864 Descending Chicago Center
01:00PM 41.9836 -87.8347 271° West 161 185 1,500 -720 Descending Chicago Center
01:01PM 41.9836 -87.8822 270° West 145 167 800 -677 Descending Chicago Center